CW2998 Weather Reports


Display with metric or nautical units.
time (UTC)temp
F
wind
direction
speed
MPH
gust
MPH
rain 1hr
in
rain 24hr
in
rain mn
in
humidity
%
barometer
mb
20210622232301 90 265 4.0 8.0 0.00 0.00 0.00 11 1000.8
20210622231802 90 263 7.0 12.0 0.00 0.00 0.00 11 1000.8
20210622231302 90 263 10.0 14.0 0.00 0.00 0.00 11 1000.8
20210622230802 90 279 5.0 14.0 0.00 0.00 0.00 11 1000.9
20210622230302 90 278 8.0 16.0 0.00 0.00 0.00 11 1000.9
20210622225802 90 259 9.0 15.0 0.00 0.00 0.00 11 1000.9
20210622225305 90 259 2.0 12.0 0.00 0.00 0.00 11 1001.0
20210622224802 89 194 3.0 8.0 0.00 0.00 0.00 11 1001.0
20210622224301 89 233 2.0 6.0 0.00 0.00 0.00 12 1001.0
20210622223802 89 286 6.0 13.0 0.00 0.00 0.00 11 1001.1
20210622223302 89 267 4.0 12.0 0.00 0.00 0.00 11 1001.2
20210622222802 89 281 5.0 9.0 0.00 0.00 0.00 11 1001.2
20210622222305 89 305 7.0 12.0 0.00 0.00 0.00 11 1001.3
20210622221802 89 261 6.0 14.0 0.00 0.00 0.00 12 1001.4
20210622221302 89 270 7.0 12.0 0.00 0.00 0.00 12 1001.4
20210622220801 89 250 3.0 9.0 0.00 0.00 0.00 13 1001.4
20210622220302 89 212 2.0 5.0 0.00 0.00 0.00 11 1001.5
20210622215802 89 199 2.0 12.0 0.00 0.00 0.00 10 1001.5
20210622215305 90 211 7.0 12.0 0.00 0.00 0.00 10 1001.5
20210622214802 89 216 4.0 10.0 0.00 0.00 0.00 10 1001.6
20210622214302 89 239 4.0 8.0 0.00 0.00 0.00 10 1001.6
20210622213802 89 239 5.0 12.0 0.00 0.00 0.00 11 1001.6
20210622213302 89 193 3.0 7.0 0.00 0.00 0.00 9 1001.7
20210622212802 89 192 3.0 8.0 0.00 0.00 0.00 9 1001.7
20210622212304 88 96 4.0 8.0 0.00 0.00 0.00 9 1001.7
20210622211803 88 66 2.0 8.0 0.00 0.00 0.00 9 1001.7
20210622211302 88 356 5.0 12.0 0.00 0.00 0.00 9 1001.8
20210622210802 88 28 3.0 14.0 0.00 0.00 0.00 8 1001.7
20210622210302 89 25 7.0 14.0 0.00 0.00 0.00 8 1001.7
20210622205803 88 323 7.0 16.0 0.00 0.00 0.00 9 1001.6
20210622205305 88 31 7.0 14.0 0.00 0.00 0.00 9 1001.6
20210622204802 87 50 8.0 15.0 0.00 0.00 0.00 9 1001.7
20210622204302 88 40 10.0 13.0 0.00 0.00 0.00 8 1001.8
20210622203802 89 74 11.0 17.0 0.00 0.00 0.00 8 1001.7
20210622203302 89 38 1.0 5.0 0.00 0.00 0.00 8 1001.7
20210622202802 89 131 3.0 8.0 0.00 0.00 0.00 8 1001.7
20210622202305 88 68 3.0 10.0 0.00 0.00 0.00 9 1001.7
20210622201802 88 43 4.0 12.0 0.00 0.00 0.00 9 1001.8
20210622201302 88 33 4.0 12.0 0.00 0.00 0.00 9 1001.9
20210622200802 87 197 7.0 14.0 0.00 0.00 0.00 9 1002.1
20210622200302 88 130 5.0 10.0 0.00 0.00 0.00 9 1002.1
20210622195802 87 36 3.0 8.0 0.00 0.00 0.00 9 1002.1
20210622195305 87 276 6.0 12.0 0.00 0.00 0.00 9 1002.2
20210622194802 87 242 5.0 12.0 0.00 0.00 0.00 10 1002.2
20210622194302 88 254 8.0 15.0 0.00 0.00 0.00 9 1002.3
20210622193802 88 263 6.0 13.0 0.00 0.00 0.00 9 1002.3
20210622193302 88 49 3.0 7.0 0.00 0.00 0.00 8 1002.3
20210622192802 88 311 5.0 10.0 0.00 0.00 0.00 8 1002.3
20210622192304 88 251 2.0 5.0 0.00 0.00 0.00 9 1002.4
20210622191802 88 253 6.0 12.0 0.00 0.00 0.00 8 1002.4
20210622191302 88 237 3.0 9.0 0.00 0.00 0.00 9 1002.4
20210622190802 87 279 9.0 16.0 0.00 0.00 0.00 9 1002.5
20210622190302 87 290 5.0 14.0 0.00 0.00 0.00 9 1002.5
20210622185802 87 69 2.0 6.0 0.00 0.00 0.00 9 1002.5
20210622185305 87 173 4.0 13.0 0.00 0.00 0.00 10 1002.7
20210622184802 87 265 3.0 13.0 0.00 0.00 0.00 11 1002.8
20210622184303 87 290 3.0 10.0 0.00 0.00 0.00 10 1002.8
20210622183802 87 336 2.0 9.0 0.00 0.00 0.00 10 1002.8
20210622183302 86 257 3.0 8.0 0.00 0.00 0.00 11 1002.9
20210622182802 86 270 6.0 12.0 0.00 0.00 0.00 11 1003.0
20210622182305 86 141 4.0 9.0 0.00 0.00 0.00 10 1003.0
20210622181802 86 198 6.0 12.0 0.00 0.00 0.00 11 1003.2
20210622181303 85 262 7.0 15.0 0.00 0.00 0.00 10 1003.2
20210622180802 85 254 7.0 15.0 0.00 0.00 0.00 10 1003.1
20210622180303 85 340 3.0 12.0 0.00 0.00 0.00 11 1003.2
20210622175803 85 213 4.0 8.0 0.00 0.00 0.00 12 1003.3
20210622175305 84 229 5.0 9.0 0.00 0.00 0.00 12 1003.3
20210622174802 84 269 7.0 12.0 0.00 0.00 0.00 12 1003.3
20210622174302 84 282 4.0 9.0 0.00 0.00 0.00 12 1003.3
20210622173803 84 228 4.0 9.0 0.00 0.00 0.00 12 1003.3
20210622173302 83 261 6.0 13.0 0.00 0.00 0.00 12 1003.3
20210622172803 83 266 6.0 10.0 0.00 0.00 0.00 12 1003.3
20210622172305 83 257 5.0 10.0 0.00 0.00 0.00 12 1003.3
20210622171802 83 269 5.0 10.0 0.00 0.00 0.00 12 1003.3
20210622171302 83 266 6.0 12.0 0.00 0.00 0.00 12 1003.3
20210622170803 83 269 2.0 7.0 0.00 0.00 0.00 13 1003.3
20210622170302 83 259 5.0 9.0 0.00 0.00 0.00 12 1003.3
20210622165802 83 257 3.0 10.0 0.00 0.00 0.00 12 1003.3
20210622165305 82 241 4.0 9.0 0.00 0.00 0.00 13 1003.4
20210622164802 82 225 3.0 8.0 0.00 0.00 0.00 12 1003.5
20210622164303 82 211 3.0 6.0 0.00 0.00 0.00 13 1003.6
20210622163802 82 191 5.0 9.0 0.00 0.00 0.00 13 1003.6
20210622163303 81 255 4.0 9.0 0.00 0.00 0.00 15 1003.7
20210622162803 82 207 5.0 12.0 0.00 0.00 0.00 15 1003.6
20210622162305 82 236 3.0 7.0 0.00 0.00 0.00 14 1003.6
20210622161803 81 220 3.0 7.0 0.00 0.00 0.00 16 1003.7
20210622161302 81 235 6.0 10.0 0.00 0.00 0.00 15 1003.7
20210622160802 81 202 2.0 5.0 0.00 0.00 0.00 15 1003.8
20210622160303 81 157 4.0 8.0 0.00 0.00 0.00 15 1003.8
20210622155802 80 211 3.0 6.0 0.00 0.00 0.00 15 1003.9
20210622155305 80 202 1.0 6.0 0.00 0.00 0.00 16 1003.9
20210622154802 79 161 3.0 7.0 0.00 0.00 0.00 17 1003.9
20210622154302 79 230 3.0 5.0 0.00 0.00 0.00 16 1003.9
20210622153802 79 180 3.0 7.0 0.00 0.00 0.00 16 1004.0
20210622153302 79 216 2.0 6.0 0.00 0.00 0.00 17 1004.0
20210622152802 78 199 2.0 6.0 0.00 0.00 0.00 17 1004.0
20210622152305 78 198 3.0 5.0 0.00 0.00 0.00 17 1004.1
20210622151802 78 203 3.0 5.0 0.00 0.00 0.00 18 1004.1
20210622151302 77 252 3.0 6.0 0.00 0.00 0.00 18 1004.1
20210622150803 77 270 3.0 7.0 0.00 0.00 0.00 18 1004.1
20210622150302 77 269 3.0 3.0 0.00 0.00 0.00 18 1004.2
20210622145802 77 265 3.0 6.0 0.00 0.00 0.00 21 1004.2
20210622145305 77 267 3.0 6.0 0.00 0.00 0.00 20 1004.2
20210622144802 77 239 2.0 3.0 0.00 0.00 0.00 20 1004.1
20210622144303 77 161 1.0 3.0 0.00 0.00 0.00 19 1004.1
20210622143802 77 246 1.0 2.0 0.00 0.00 0.00 20 1004.2
20210622143303 77 221 1.0 3.0 0.00 0.00 0.00 19 1004.1
20210622142803 77 198 1.0 3.0 0.00 0.00 0.00 19 1004.2
20210622142305 76 257 1.0 3.0 0.00 0.00 0.00 20 1004.2
20210622141802 76 257 4.0 7.0 0.00 0.00 0.00 20 1004.2
20210622141303 75 258 3.0 6.0 0.00 0.00 0.00 23 1004.3
20210622140803 75 227 1.0 3.0 0.00 0.00 0.00 21 1004.3
20210622140302 75 237 1.0 3.0 0.00 0.00 0.00 21 1004.3
20210622135803 75 255 0.0 1.0 0.00 0.00 0.00 20 1004.2
20210622135305 75 255 0.0 2.0 0.00 0.00 0.00 21 1004.2
20210622134802 75 264 1.0 3.0 0.00 0.00 0.00 21 1004.2
20210622134302 74 215 1.0 3.0 0.00 0.00 0.00 22 1004.3
20210622133803 74 250 2.0 3.0 0.00 0.00 0.00 21 1004.2
20210622133302 74 231 1.0 3.0 0.00 0.00 0.00 21 1004.3
20210622132802 74 231 1.0 3.0 0.00 0.00 0.00 21 1004.3
20210622132305 73 264 1.0 7.0 0.00 0.00 0.00 21 1004.4
20210622131803 72 207 1.0 5.0 0.00 0.00 0.00 21 1004.3
20210622131302 72 237 1.0 3.0 0.00 0.00 0.00 23 1004.4
20210622130803 72 192 2.0 3.0 0.00 0.00 0.00 22 1004.5
20210622130303 72 190 2.0 5.0 0.00 0.00 0.00 22 1004.5
20210622125802 72 229 1.0 3.0 0.00 0.00 0.00 22 1004.5
20210622125305 71 259 1.0 3.0 0.00 0.00 0.00 22 1004.6
20210622124803 71 223 0.0 3.0 0.00 0.00 0.00 22 1004.6
20210622124302 71 220 1.0 3.0 0.00 0.00 0.00 22 1004.6
20210622123802 71 228 2.0 3.0 0.00 0.00 0.00 23 1004.5
20210622123303 71 259 1.0 6.0 0.00 0.00 0.00 23 1004.4
20210622122803 71 227 1.0 3.0 0.00 0.00 0.00 22 1004.3
20210622122305 70 267 1.0 3.0 0.00 0.00 0.00 22 1004.3
20210622121802 70 248 1.0 3.0 0.00 0.00 0.00 23 1004.3
20210622121303 70 250 1.0 3.0 0.00 0.00 0.00 23 1004.3
20210622120803 70 269 2.0 7.0 0.00 0.00 0.00 23 1004.3
20210622120303 69 279 1.0 3.0 0.00 0.00 0.00 22 1004.3
20210622115803 69 261 2.0 6.0 0.00 0.00 0.00 23 1004.2
20210622115305 69 272 5.0 7.0 0.00 0.00 0.00 23 1004.2
20210622114803 68 258 2.0 6.0 0.00 0.00 0.00 25 1004.1
20210622114303 67 266 5.0 8.0 0.00 0.00 0.00 25 1004.1
20210622113802 67 274 3.0 6.0 0.00 0.00 0.00 26 1004.0
20210622113303 67 271 3.0 6.0 0.00 0.00 0.00 26 1004.0
20210622112803 67 264 1.0 3.0 0.00 0.00 0.00 26 1004.0
20210622112305 67 266 4.0 6.0 0.00 0.00 0.00 27 1003.9
20210622111803 68 265 3.0 6.0 0.00 0.00 0.00 26 1003.9
20210622111302 69 269 3.0 3.0 0.00 0.00 0.00 24 1003.9
20210622110803 70 236 1.0 3.0 0.00 0.00 0.00 24 1003.9
20210622110303 71 243 1.0 3.0 0.00 0.00 0.00 23 1003.9
20210622105802 72 250 1.0 3.0 0.00 0.00 0.00 21 1003.9
20210622105305 72 254 2.0 3.0 0.00 0.00 0.00 20 1003.9
20210622104803 73 239 2.0 5.0 0.00 0.00 0.00 19 1003.9
20210622104303 73 232 2.0 5.0 0.00 0.00 0.00 20 1003.9
20210622103803 73 227 2.0 7.0 0.00 0.00 0.00 20 1003.9
20210622103302 72 229 2.0 5.0 0.00 0.00 0.00 20 1003.9
20210622102803 72 224 1.0 7.0 0.00 0.00 0.00 20 1003.8
20210622102305 72 207 1.0 5.0 0.00 0.00 0.00 20 1003.8
20210622101803 71 231 2.0 3.0 0.00 0.00 0.00 21 1003.8
20210622101303 71 241 1.0 6.0 0.00 0.00 0.00 21 1003.9
20210622100803 71 249 1.0 3.0 0.00 0.00 0.00 21 1003.9
20210622100303 71 249 2.0 3.0 0.00 0.00 0.00 21 1003.9
20210622095803 71 231 2.0 6.0 0.00 0.00 0.00 21 1003.9
20210622095305 72 239 2.0 3.0 0.00 0.00 0.00 21 1003.9
20210622094803 72 246 2.0 6.0 0.00 0.00 0.00 21 1004.0
20210622094303 72 253 2.0 5.0 0.00 0.00 0.00 20 1003.9
20210622093802 72 253 3.0 8.0 0.00 0.00 0.00 20 1004.0
20210622093303 72 269 2.0 6.0 0.00 0.00 0.00 20 1004.0
20210622092803 73 231 2.0 8.0 0.00 0.00 0.00 20 1004.1
20210622092306 73 254 2.0 5.0 0.00 0.00 0.00 20 1004.1
20210622091803 73 250 3.0 6.0 0.00 0.00 0.00 20 1004.2
20210622091303 73 229 2.0 5.0 0.00 0.00 0.00 20 1004.1
20210622090803 73 249 2.0 6.0 0.00 0.00 0.00 20 1004.0
20210622090303 73 241 3.0 8.0 0.00 0.00 0.00 19 1004.1
20210622085802 73 232 2.0 7.0 0.00 0.00 0.00 20 1004.1
20210622085305 73 230 2.0 6.0 0.00 0.00 0.00 20 1004.1
20210622084803 73 233 5.0 9.0 0.00 0.00 0.00 19 1004.2
20210622084303 73 262 5.0 8.0 0.00 0.00 0.00 20 1004.2
20210622083803 72 252 3.0 8.0 0.00 0.00 0.00 21 1004.3
20210622083302 72 267 2.0 6.0 0.00 0.00 0.00 22 1004.3
20210622082803 72 267 2.0 7.0 0.00 0.00 0.00 22 1004.3
20210622082305 72 268 4.0 6.0 0.00 0.00 0.00 22 1004.4
20210622081803 72 247 2.0 9.0 0.00 0.00 0.00 23 1004.4
20210622081303 72 258 3.0 9.0 0.00 0.00 0.00 23 1004.4
20210622080803 72 228 1.0 3.0 0.00 0.00 0.00 23 1004.4
20210622080303 73 256 5.0 8.0 0.00 0.00 0.00 23 1004.5
20210622075803 74 267 5.0 7.0 0.00 0.00 0.00 22 1004.5
20210622075305 75 251 1.0 8.0 0.00 0.00 0.00 19 1004.4
20210622074803 75 243 3.0 12.0 0.00 0.00 0.00 19 1004.4
20210622074303 75 247 5.0 10.0 0.00 0.00 0.00 19 1004.5
20210622073803 75 244 3.0 7.0 0.00 0.00 0.00 19 1004.4
20210622073303 75 250 3.0 8.0 0.00 0.00 0.00 19 1004.5
20210622072803 75 242 4.0 10.0 0.00 0.00 0.00 18 1004.4
20210622072306 75 250 3.0 8.0 0.00 0.00 0.00 18 1004.4
20210622071803 75 235 4.0 8.0 0.00 0.00 0.00 18 1004.5
20210622071303 76 248 4.0 8.0 0.00 0.00 0.00 18 1004.5
20210622070803 76 251 3.0 8.0 0.00 0.00 0.00 18 1004.5
20210622070303 76 247 5.0 10.0 0.00 0.00 0.00 17 1004.6
20210622065803 76 218 2.0 5.0 0.00 0.00 0.00 18 1004.5
20210622065305 76 219 2.0 6.0 0.00 0.00 0.00 17 1004.6
20210622064803 77 224 3.0 9.0 0.00 0.00 0.00 18 1004.5
20210622064303 77 229 2.0 8.0 0.00 0.00 0.00 18 1004.6
20210622063803 77 253 2.0 6.0 0.00 0.00 0.00 18 1004.6
20210622063303 77 231 2.0 6.0 0.00 0.00 0.00 18 1004.6
20210622062803 77 240 4.0 9.0 0.00 0.00 0.00 18 1004.6
20210622062306 77 246 5.0 10.0 0.00 0.00 0.00 19 1004.4
20210622061803 77 241 3.0 9.0 0.00 0.00 0.00 19 1004.4
20210622061303 77 245 3.0 9.0 0.00 0.00 0.00 19 1004.4
20210622060803 77 231 3.0 8.0 0.00 0.00 0.00 19 1004.3
20210622060303 77 251 3.0 7.0 0.00 0.00 0.00 19 1004.3
20210622055803 78 236 6.0 10.0 0.00 0.00 0.00 19 1004.2
20210622055305 78 231 3.0 15.0 0.00 0.00 0.00 19 1004.2
20210622054804 78 232 6.0 12.0 0.00 0.00 0.00 20 1004.1
20210622054303 78 243 4.0 8.0 0.00 0.00 0.00 20 1004.2
20210622053803 78 236 6.0 12.0 0.00 0.00 0.00 20 1004.2
20210622053303 78 218 3.0 8.0 0.00 0.00 0.00 20 1004.2
20210622052803 78 224 2.0 12.0 0.00 0.00 0.00 20 1004.2
20210622052305 77 236 5.0 10.0 0.00 0.00 0.00 20 1004.2
20210622051803 77 202 3.0 10.0 0.00 0.00 0.00 21 1004.2
20210622051304 77 201 2.0 8.0 0.00 0.00 0.00 22 1004.1
20210622050803 78 212 2.0 7.0 0.00 0.00 0.00 22 1004.1
20210622050303 78 211 5.0 9.0 0.00 0.00 0.00 21 1004.0
20210622045803 78 203 5.0 10.0 0.00 0.00 0.00 21 1004.0
20210622045306 78 218 5.0 12.0 0.00 0.00 0.00 22 1004.0
20210622044803 79 216 3.0 8.0 0.00 0.00 0.00 21 1003.9
20210622044304 79 215 4.0 9.0 0.00 0.00 0.00 21 1003.9
20210622043804 79 230 4.0 10.0 0.00 0.00 0.00 21 1003.7
20210622043303 79 238 6.0 12.0 0.00 0.00 0.00 21 1003.7
20210622042803 79 232 5.0 13.0 0.00 0.00 0.00 21 1003.6
20210622042305 79 205 5.0 13.0 0.00 0.00 0.00 21 1003.5
20210622041803 80 230 5.0 12.0 0.00 0.00 0.00 21 1003.4
20210622041304 80 233 6.0 12.0 0.00 0.00 0.00 21 1003.3
20210622040804 80 245 5.0 12.0 0.00 0.00 0.00 22 1003.4
20210622040303 80 235 5.0 12.0 0.00 0.00 0.00 22 1003.3
20210622035803 80 238 5.0 12.0 0.00 0.00 0.00 22 1003.2
20210622035305 80 234 7.0 16.0 0.00 0.00 0.00 21 1003.2
20210622034804 80 242 3.0 12.0 0.00 0.00 0.00 21 1003.3
20210622034303 80 214 5.0 16.0 0.00 0.00 0.00 21 1003.2
20210622033803 81 248 4.0 10.0 0.00 0.00 0.00 21 1003.1
20210622033304 81 231 4.0 12.0 0.00 0.00 0.00 21 1003.1
20210622032803 81 221 6.0 10.0 0.00 0.00 0.00 21 1003.0
20210622032305 81 226 5.0 12.0 0.00 0.00 0.00 21 1003.0
20210622031803 82 233 6.0 13.0 0.00 0.00 0.00 21 1003.0
20210622031303 82 247 5.0 12.0 0.00 0.00 0.00 20 1003.1
20210622030803 82 228 5.0 10.0 0.00 0.00 0.00 19 1003.0
20210622030303 83 221 4.0 16.0 0.00 0.00 0.00 17 1002.9
20210622025804 83 261 3.0 12.0 0.00 0.00 0.00 16 1002.8
20210622025305 84 249 5.0 15.0 0.00 0.00 0.00 15 1002.7
20210622024803 84 241 7.0 18.0 0.00 0.00 0.00 14 1002.6
20210622024304 85 254 7.0 15.0 0.00 0.00 0.00 14 1002.6
20210622023804 85 242 5.0 13.0 0.00 0.00 0.00 14 1002.5
20210622023304 85 261 5.0 13.0 0.00 0.00 0.00 15 1002.4
20210622022804 85 246 5.0 12.0 0.00 0.00 0.00 15 1002.3
20210622022305 86 248 8.0 14.0 0.00 0.00 0.00 14 1002.4
20210622021804 86 264 11.0 16.0 0.00 0.00 0.00 14 1002.4
20210622021303 86 260 9.0 18.0 0.00 0.00 0.00 14 1002.2
20210622020804 86 250 6.0 14.0 0.00 0.00 0.00 15 1002.2
20210622020304 86 263 12.0 22.0 0.00 0.00 0.00 15 1002.1
20210622015802 87 256 11.0 16.0 0.00 0.00 0.00 15 1002.0
20210622015301 87 254 8.0 13.0 0.00 0.00 0.00 15 1002.0
20210622014802 87 239 7.0 13.0 0.00 0.00 0.00 15 1001.9
20210622014301 88 263 10.0 18.0 0.00 0.00 0.00 15 1001.9
20210622013802 88 262 11.0 17.0 0.00 0.00 0.00 15 1001.8
20210622013302 88 254 9.0 20.0 0.00 0.00 0.00 16 1001.7
20210622012802 88 260 10.0 23.0 0.00 0.00 0.00 15 1001.6
20210622012305 88 271 12.0 20.0 0.00 0.00 0.00 15 1001.6
20210622011801 88 269 14.0 25.0 0.00 0.00 0.00 15 1001.6
20210622011302 89 259 13.0 23.0 0.00 0.00 0.00 15 1001.6
20210622010802 89 270 12.0 25.0 0.00 0.00 0.00 15 1001.6
20210622010301 90 269 12.0 20.0 0.00 0.00 0.00 15 1001.6
20210622005801 90 268 8.0 17.0 0.00 0.00 0.00 15 1001.7
20210622005305 90 268 14.0 23.0 0.00 0.00 0.00 14 1001.6
20210622004802 90 273 13.0 20.0 0.00 0.00 0.00 14 1001.5
20210622004302 91 261 12.0 21.0 0.00 0.00 0.00 14 1001.6
20210622003802 91 263 11.0 20.0 0.00 0.00 0.00 14 1001.5
20210622003301 91 271 9.0 18.0 0.00 0.00 0.00 14 1001.5
20210622002801 92 265 10.0 16.0 0.00 0.00 0.00 13 1001.5
20210622002305 91 257 8.0 15.0 0.00 0.00 0.00 14 1001.4
20210622001802 91 249 9.0 17.0 0.00 0.00 0.00 13 1001.4
20210622001302 91 268 14.0 20.0 0.00 0.00 0.00 13 1001.4
20210622000801 92 276 13.0 26.0 0.00 0.00 0.00 13 1001.5
20210622000302 93 249 9.0 18.0 0.00 0.00 0.00 13 1001.6
20210621235802 93 251 7.0 17.0 0.00 0.00 0.00 13 1001.6
20210621235302 94 234 6.0 15.0 0.00 0.00 0.00 13 1001.5
20210621234802 93 240 6.0 17.0 0.00 0.00 0.00 12 1001.5
20210621234302 94 218 10.0 20.0 0.00 0.00 0.00 12 1001.5
20210621233801 94 237 9.0 18.0 0.00 0.00 0.00 12 1001.5
20210621233302 94 241 8.0 16.0 0.00 0.00 0.00 12 1001.5
20210621232802 94 222 6.0 14.0 0.00 0.00 0.00 11 1001.5